Aviation Digital Data Service (ADDS)

Output produced by METARs form (1710 UTC 26 April 2018)
found at http://aviationweather.gov/adds/metars/
 
KCXO 261653Z VRB05KT 10SM CLR 19/08 A3004 RMK AO2 SLP170 T01940078